sensor_id;sensor_type;location;lat;lon;timestamp;P1;durP1;ratioP1;P2;durP2;ratioP2
45007;SDS011;30743;52.008;5.644;2023-04-12T00:00:22;2.88;;;1.58;;
45007;SDS011;30743;52.008;5.644;2023-04-12T00:02:48;4.72;;;1.15;;
45007;SDS011;30743;52.008;5.644;2023-04-12T00:05:17;7.30;;;2.13;;
45007;SDS011;30743;52.008;5.644;2023-04-12T00:07:46;5.80;;;1.52;;
45007;SDS011;30743;52.008;5.644;2023-04-12T00:10:17;6.45;;;1.80;;
45007;SDS011;30743;52.008;5.644;2023-04-12T00:12:43;7.22;;;1.55;;
45007;SDS011;30743;52.008;5.644;2023-04-12T00:15:09;6.75;;;1.90;;
45007;SDS011;30743;52.008;5.644;2023-04-12T00:17:34;7.47;;;1.55;;
45007;SDS011;30743;52.008;5.644;2023-04-12T00:20:01;6.45;;;1.55;;
45007;SDS011;30743;52.008;5.644;2023-04-12T00:22:29;7.05;;;1.77;;
45007;SDS011;30743;52.008;5.644;2023-04-12T00:24:55;3.92;;;1.55;;
45007;SDS011;30743;52.008;5.644;2023-04-12T00:27:20;7.25;;;2.13;;
45007;SDS011;30743;52.008;5.644;2023-04-12T00:29:46;5.95;;;1.40;;
45007;SDS011;30743;52.008;5.644;2023-04-12T00:32:11;5.78;;;1.65;;
45007;SDS011;30743;52.008;5.644;2023-04-12T00:34:37;4.45;;;1.67;;
45007;SDS011;30743;52.008;5.644;2023-04-12T00:37:02;9.18;;;3.08;;
45007;SDS011;30743;52.008;5.644;2023-04-12T00:39:28;6.22;;;2.50;;
45007;SDS011;30743;52.008;5.644;2023-04-12T00:41:53;4.90;;;1.75;;
45007;SDS011;30743;52.008;5.644;2023-04-12T00:44:20;3.83;;;1.80;;
45007;SDS011;30743;52.008;5.644;2023-04-12T00:46:47;7.82;;;2.58;;
45007;SDS011;30743;52.008;5.644;2023-04-12T00:49:12;5.15;;;1.58;;
45007;SDS011;30743;52.008;5.644;2023-04-12T00:51:39;5.75;;;1.80;;
45007;SDS011;30743;52.008;5.644;2023-04-12T00:54:05;4.50;;;1.50;;
45007;SDS011;30743;52.008;5.644;2023-04-12T00:56:31;6.60;;;1.60;;
45007;SDS011;30743;52.008;5.644;2023-04-12T00:58:57;6.28;;;1.85;;
45007;SDS011;30743;52.008;5.644;2023-04-12T01:01:23;5.88;;;2.00;;
45007;SDS011;30743;52.008;5.644;2023-04-12T01:03:49;4.47;;;1.40;;
45007;SDS011;30743;52.008;5.644;2023-04-12T01:06:23;4.20;;;1.40;;
45007;SDS011;30743;52.008;5.644;2023-04-12T01:09:04;4.57;;;1.10;;
45007;SDS011;30743;52.008;5.644;2023-04-12T01:15:07;4.80;;;0.90;;
45007;SDS011;30743;52.008;5.644;2023-04-12T01:20:22;4.45;;;1.27;;
45007;SDS011;30743;52.008;5.644;2023-04-12T01:25:29;3.95;;;1.02;;
45007;SDS011;30743;52.008;5.644;2023-04-12T01:28:03;3.67;;;0.88;;
45007;SDS011;30743;52.008;5.644;2023-04-12T01:30:30;3.70;;;1.30;;
45007;SDS011;30743;52.008;5.644;2023-04-12T01:32:58;2.63;;;1.17;;
45007;SDS011;30743;52.008;5.644;2023-04-12T01:35:27;2.65;;;1.27;;
45007;SDS011;30743;52.008;5.644;2023-04-12T01:37:56;2.03;;;1.05;;
45007;SDS011;30743;52.008;5.644;2023-04-12T01:40:23;2.60;;;1.27;;
45007;SDS011;30743;52.008;5.644;2023-04-12T01:42:51;2.33;;;0.90;;
45007;SDS011;30743;52.008;5.644;2023-04-12T01:45:37;4.18;;;1.17;;
45007;SDS011;30743;52.008;5.644;2023-04-12T01:48:04;5.13;;;1.20;;
45007;SDS011;30743;52.008;5.644;2023-04-12T01:53:10;2.53;;;1.00;;
45007;SDS011;30743;52.008;5.644;2023-04-12T01:55:38;2.53;;;1.10;;
45007;SDS011;30743;52.008;5.644;2023-04-12T01:58:06;3.17;;;1.20;;
45007;SDS011;30743;52.008;5.644;2023-04-12T02:00:34;4.70;;;1.38;;
45007;SDS011;30743;52.008;5.644;2023-04-12T02:03:01;5.18;;;1.27;;
45007;SDS011;30743;52.008;5.644;2023-04-12T02:05:28;7.88;;;1.30;;
45007;SDS011;30743;52.008;5.644;2023-04-12T02:07:53;4.07;;;1.08;;
45007;SDS011;30743;52.008;5.644;2023-04-12T02:10:27;3.03;;;1.10;;
45007;SDS011;30743;52.008;5.644;2023-04-12T02:12:53;4.20;;;1.73;;
45007;SDS011;30743;52.008;5.644;2023-04-12T02:15:19;6.63;;;1.67;;
45007;SDS011;30743;52.008;5.644;2023-04-12T02:17:45;6.32;;;3.72;;
45007;SDS011;30743;52.008;5.644;2023-04-12T02:20:10;3.80;;;1.48;;
45007;SDS011;30743;52.008;5.644;2023-04-12T02:22:36;4.03;;;1.52;;
45007;SDS011;30743;52.008;5.644;2023-04-12T02:25:02;6.45;;;3.08;;
45007;SDS011;30743;52.008;5.644;2023-04-12T02:27:30;3.33;;;1.20;;
45007;SDS011;30743;52.008;5.644;2023-04-12T02:29:55;4.88;;;1.40;;
45007;SDS011;30743;52.008;5.644;2023-04-12T02:32:22;4.20;;;1.63;;
45007;SDS011;30743;52.008;5.644;2023-04-12T02:34:48;2.17;;;0.90;;
45007;SDS011;30743;52.008;5.644;2023-04-12T02:37:15;2.38;;;1.15;;
45007;SDS011;30743;52.008;5.644;2023-04-12T02:39:41;2.97;;;1.10;;
45007;SDS011;30743;52.008;5.644;2023-04-12T02:42:08;9.65;;;1.63;;
45007;SDS011;30743;52.008;5.644;2023-04-12T02:44:34;2.85;;;0.85;;
45007;SDS011;30743;52.008;5.644;2023-04-12T02:46:59;3.63;;;1.27;;
45007;SDS011;30743;52.008;5.644;2023-04-12T02:49:25;2.78;;;1.10;;
45007;SDS011;30743;52.008;5.644;2023-04-12T02:51:51;3.47;;;1.60;;
45007;SDS011;30743;52.008;5.644;2023-04-12T02:54:16;4.38;;;1.00;;
45007;SDS011;30743;52.008;5.644;2023-04-12T02:56:42;4.80;;;1.20;;
45007;SDS011;30743;52.008;5.644;2023-04-12T02:59:07;4.28;;;1.35;;
45007;SDS011;30743;52.008;5.644;2023-04-12T03:01:33;4.38;;;1.05;;
45007;SDS011;30743;52.008;5.644;2023-04-12T03:03:59;7.13;;;0.90;;
45007;SDS011;30743;52.008;5.644;2023-04-12T03:06:26;5.15;;;1.35;;
45007;SDS011;30743;52.008;5.644;2023-04-12T03:08:51;2.75;;;0.95;;
45007;SDS011;30743;52.008;5.644;2023-04-12T03:11:17;2.83;;;1.48;;
45007;SDS011;30743;52.008;5.644;2023-04-12T03:13:42;2.88;;;0.60;;
45007;SDS011;30743;52.008;5.644;2023-04-12T03:16:21;1.92;;;0.90;;
45007;SDS011;30743;52.008;5.644;2023-04-12T03:18:48;2.78;;;1.02;;
45007;SDS011;30743;52.008;5.644;2023-04-12T03:21:14;5.78;;;1.00;;
45007;SDS011;30743;52.008;5.644;2023-04-12T03:23:40;2.55;;;0.88;;
45007;SDS011;30743;52.008;5.644;2023-04-12T03:26:06;3.58;;;1.15;;
45007;SDS011;30743;52.008;5.644;2023-04-12T03:28:32;6.78;;;1.08;;
45007;SDS011;30743;52.008;5.644;2023-04-12T03:30:58;5.93;;;1.05;;
45007;SDS011;30743;52.008;5.644;2023-04-12T03:33:24;2.85;;;0.90;;
45007;SDS011;30743;52.008;5.644;2023-04-12T03:35:50;2.92;;;1.17;;
45007;SDS011;30743;52.008;5.644;2023-04-12T03:38:16;5.47;;;1.50;;
45007;SDS011;30743;52.008;5.644;2023-04-12T03:40:41;3.78;;;0.95;;
45007;SDS011;30743;52.008;5.644;2023-04-12T03:43:07;3.90;;;1.23;;
45007;SDS011;30743;52.008;5.644;2023-04-12T03:45:32;4.93;;;1.23;;
45007;SDS011;30743;52.008;5.644;2023-04-12T03:47:58;2.35;;;0.88;;
45007;SDS011;30743;52.008;5.644;2023-04-12T03:50:23;3.90;;;1.15;;
45007;SDS011;30743;52.008;5.644;2023-04-12T03:52:49;1.77;;;0.80;;
45007;SDS011;30743;52.008;5.644;2023-04-12T03:55:15;1.73;;;0.60;;
45007;SDS011;30743;52.008;5.644;2023-04-12T03:57:42;2.88;;;1.55;;
45007;SDS011;30743;52.008;5.644;2023-04-12T04:00:08;1.17;;;0.63;;
45007;SDS011;30743;52.008;5.644;2023-04-12T04:02:34;1.65;;;0.90;;
45007;SDS011;30743;52.008;5.644;2023-04-12T04:05:00;4.35;;;1.08;;
45007;SDS011;30743;52.008;5.644;2023-04-12T04:07:27;1.98;;;1.02;;
45007;SDS011;30743;52.008;5.644;2023-04-12T04:09:53;2.95;;;1.00;;
45007;SDS011;30743;52.008;5.644;2023-04-12T04:12:19;2.85;;;1.20;;
45007;SDS011;30743;52.008;5.644;2023-04-12T04:14:45;1.75;;;0.98;;
45007;SDS011;30743;52.008;5.644;2023-04-12T04:17:10;1.80;;;1.02;;
45007;SDS011;30743;52.008;5.644;2023-04-12T04:19:36;3.25;;;1.27;;
45007;SDS011;30743;52.008;5.644;2023-04-12T04:22:02;2.40;;;1.05;;
45007;SDS011;30743;52.008;5.644;2023-04-12T04:24:28;4.35;;;1.00;;
45007;SDS011;30743;52.008;5.644;2023-04-12T04:26:54;2.22;;;1.20;;
45007;SDS011;30743;52.008;5.644;2023-04-12T04:29:19;2.63;;;1.20;;
45007;SDS011;30743;52.008;5.644;2023-04-12T04:31:45;4.28;;;1.13;;
45007;SDS011;30743;52.008;5.644;2023-04-12T04:34:11;1.70;;;0.90;;
45007;SDS011;30743;52.008;5.644;2023-04-12T04:36:39;2.50;;;1.00;;
45007;SDS011;30743;52.008;5.644;2023-04-12T04:39:05;3.22;;;1.33;;
45007;SDS011;30743;52.008;5.644;2023-04-12T04:41:31;5.30;;;1.20;;
45007;SDS011;30743;52.008;5.644;2023-04-12T04:44:03;3.97;;;1.20;;
45007;SDS011;30743;52.008;5.644;2023-04-12T04:46:33;2.90;;;0.95;;
45007;SDS011;30743;52.008;5.644;2023-04-12T04:49:01;3.33;;;1.00;;
45007;SDS011;30743;52.008;5.644;2023-04-12T04:51:28;2.40;;;1.05;;
45007;SDS011;30743;52.008;5.644;2023-04-12T04:53:53;1.95;;;0.88;;
45007;SDS011;30743;52.008;5.644;2023-04-12T04:56:19;4.25;;;1.20;;
45007;SDS011;30743;52.008;5.644;2023-04-12T04:58:47;2.88;;;0.90;;
45007;SDS011;30743;52.008;5.644;2023-04-12T05:01:13;2.85;;;1.25;;
45007;SDS011;30743;52.008;5.644;2023-04-12T05:03:40;3.90;;;1.35;;
45007;SDS011;30743;52.008;5.644;2023-04-12T05:06:08;1.02;;;0.88;;
45007;SDS011;30743;52.008;5.644;2023-04-12T05:08:34;2.55;;;1.30;;
45007;SDS011;30743;52.008;5.644;2023-04-12T05:11:00;1.52;;;1.17;;
45007;SDS011;30743;52.008;5.644;2023-04-12T05:13:25;3.75;;;1.45;;
45007;SDS011;30743;52.008;5.644;2023-04-12T05:15:51;5.25;;;1.30;;
45007;SDS011;30743;52.008;5.644;2023-04-12T05:18:16;4.40;;;1.13;;
45007;SDS011;30743;52.008;5.644;2023-04-12T05:20:42;2.45;;;1.40;;
45007;SDS011;30743;52.008;5.644;2023-04-12T05:23:08;4.07;;;1.58;;
45007;SDS011;30743;52.008;5.644;2023-04-12T05:25:33;4.30;;;1.25;;
45007;SDS011;30743;52.008;5.644;2023-04-12T05:27:59;2.30;;;1.25;;
45007;SDS011;30743;52.008;5.644;2023-04-12T05:30:25;4.00;;;2.30;;
45007;SDS011;30743;52.008;5.644;2023-04-12T05:32:50;2.75;;;1.73;;
45007;SDS011;30743;52.008;5.644;2023-04-12T05:35:16;3.35;;;1.75;;
45007;SDS011;30743;52.008;5.644;2023-04-12T05:37:41;3.20;;;1.40;;
45007;SDS011;30743;52.008;5.644;2023-04-12T05:40:07;2.90;;;2.05;;
45007;SDS011;30743;52.008;5.644;2023-04-12T05:42:36;6.05;;;1.38;;
45007;SDS011;30743;52.008;5.644;2023-04-12T05:45:02;2.20;;;1.27;;
45007;SDS011;30743;52.008;5.644;2023-04-12T05:47:28;5.28;;;2.30;;
45007;SDS011;30743;52.008;5.644;2023-04-12T05:49:54;3.65;;;1.83;;
45007;SDS011;30743;52.008;5.644;2023-04-12T05:52:19;2.80;;;1.38;;
45007;SDS011;30743;52.008;5.644;2023-04-12T05:54:45;3.67;;;1.52;;
45007;SDS011;30743;52.008;5.644;2023-04-12T05:57:11;4.43;;;1.83;;
45007;SDS011;30743;52.008;5.644;2023-04-12T05:59:36;2.70;;;1.40;;
45007;SDS011;30743;52.008;5.644;2023-04-12T06:02:02;2.03;;;1.38;;
45007;SDS011;30743;52.008;5.644;2023-04-12T06:04:28;3.40;;;1.25;;
45007;SDS011;30743;52.008;5.644;2023-04-12T06:06:53;2.30;;;1.50;;
45007;SDS011;30743;52.008;5.644;2023-04-12T06:09:20;3.92;;;1.77;;
45007;SDS011;30743;52.008;5.644;2023-04-12T06:11:46;4.10;;;1.60;;
45007;SDS011;30743;52.008;5.644;2023-04-12T06:14:11;3.03;;;1.58;;
45007;SDS011;30743;52.008;5.644;2023-04-12T06:16:38;3.42;;;1.70;;
45007;SDS011;30743;52.008;5.644;2023-04-12T06:19:03;3.80;;;2.05;;
45007;SDS011;30743;52.008;5.644;2023-04-12T06:21:29;3.67;;;2.20;;
45007;SDS011;30743;52.008;5.644;2023-04-12T06:23:55;4.05;;;2.42;;
45007;SDS011;30743;52.008;5.644;2023-04-12T06:26:20;4.18;;;2.53;;
45007;SDS011;30743;52.008;5.644;2023-04-12T06:28:46;3.78;;;2.20;;
45007;SDS011;30743;52.008;5.644;2023-04-12T06:31:12;4.28;;;2.53;;
45007;SDS011;30743;52.008;5.644;2023-04-12T06:33:37;2.67;;;1.95;;
45007;SDS011;30743;52.008;5.644;2023-04-12T06:36:03;2.17;;;1.33;;
45007;SDS011;30743;52.008;5.644;2023-04-12T06:38:29;3.05;;;1.55;;
45007;SDS011;30743;52.008;5.644;2023-04-12T06:40:54;2.20;;;1.30;;
45007;SDS011;30743;52.008;5.644;2023-04-12T06:43:20;2.97;;;1.70;;
45007;SDS011;30743;52.008;5.644;2023-04-12T06:45:46;3.70;;;1.80;;
45007;SDS011;30743;52.008;5.644;2023-04-12T06:48:13;4.57;;;1.58;;
45007;SDS011;30743;52.008;5.644;2023-04-12T06:50:39;2.47;;;1.58;;
45007;SDS011;30743;52.008;5.644;2023-04-12T06:53:05;4.15;;;1.70;;
45007;SDS011;30743;52.008;5.644;2023-04-12T06:55:30;2.35;;;1.63;;
45007;SDS011;30743;52.008;5.644;2023-04-12T06:57:56;3.33;;;1.80;;
45007;SDS011;30743;52.008;5.644;2023-04-12T07:00:22;4.18;;;1.70;;
45007;SDS011;30743;52.008;5.644;2023-04-12T07:02:47;4.50;;;1.85;;
45007;SDS011;30743;52.008;5.644;2023-04-12T07:05:13;2.45;;;1.70;;
45007;SDS011;30743;52.008;5.644;2023-04-12T07:07:39;1.98;;;1.50;;
45007;SDS011;30743;52.008;5.644;2023-04-12T07:10:04;3.10;;;1.88;;
45007;SDS011;30743;52.008;5.644;2023-04-12T07:12:30;2.40;;;1.90;;
45007;SDS011;30743;52.008;5.644;2023-04-12T07:14:56;6.75;;;3.20;;
45007;SDS011;30743;52.008;5.644;2023-04-12T07:17:22;4.13;;;2.20;;
45007;SDS011;30743;52.008;5.644;2023-04-12T07:19:50;3.78;;;2.33;;
45007;SDS011;30743;52.008;5.644;2023-04-12T07:22:17;3.20;;;2.45;;
45007;SDS011;30743;52.008;5.644;2023-04-12T07:24:43;3.25;;;2.10;;
45007;SDS011;30743;52.008;5.644;2023-04-12T07:27:08;3.50;;;2.45;;
45007;SDS011;30743;52.008;5.644;2023-04-12T07:29:35;3.88;;;2.15;;
45007;SDS011;30743;52.008;5.644;2023-04-12T07:32:01;4.88;;;2.40;;
45007;SDS011;30743;52.008;5.644;2023-04-12T07:34:28;3.40;;;2.28;;
45007;SDS011;30743;52.008;5.644;2023-04-12T07:36:54;6.82;;;2.80;;
45007;SDS011;30743;52.008;5.644;2023-04-12T07:39:20;5.50;;;2.50;;
45007;SDS011;30743;52.008;5.644;2023-04-12T07:41:45;4.10;;;2.63;;
45007;SDS011;30743;52.008;5.644;2023-04-12T07:44:12;3.83;;;2.30;;
45007;SDS011;30743;52.008;5.644;2023-04-12T07:46:38;3.80;;;2.65;;
45007;SDS011;30743;52.008;5.644;2023-04-12T07:49:04;3.95;;;2.53;;
45007;SDS011;30743;52.008;5.644;2023-04-12T07:51:30;3.78;;;2.78;;
45007;SDS011;30743;52.008;5.644;2023-04-12T07:53:56;5.88;;;2.78;;
45007;SDS011;30743;52.008;5.644;2023-04-12T07:56:22;4.68;;;2.55;;
45007;SDS011;30743;52.008;5.644;2023-04-12T07:58:47;3.58;;;2.50;;
45007;SDS011;30743;52.008;5.644;2023-04-12T08:01:14;4.00;;;2.35;;
45007;SDS011;30743;52.008;5.644;2023-04-12T08:03:39;6.90;;;2.80;;
45007;SDS011;30743;52.008;5.644;2023-04-12T08:06:05;5.72;;;2.80;;
45007;SDS011;30743;52.008;5.644;2023-04-12T08:08:31;5.60;;;2.13;;
45007;SDS011;30743;52.008;5.644;2023-04-12T08:10:57;6.68;;;2.53;;
45007;SDS011;30743;52.008;5.644;2023-04-12T08:13:22;3.85;;;1.60;;
45007;SDS011;30743;52.008;5.644;2023-04-12T08:15:48;7.72;;;1.73;;
45007;SDS011;30743;52.008;5.644;2023-04-12T08:18:14;6.32;;;1.88;;
45007;SDS011;30743;52.008;5.644;2023-04-12T08:20:39;6.85;;;2.03;;
45007;SDS011;30743;52.008;5.644;2023-04-12T08:23:05;3.85;;;1.63;;
45007;SDS011;30743;52.008;5.644;2023-04-12T08:25:31;8.40;;;2.30;;
45007;SDS011;30743;52.008;5.644;2023-04-12T08:27:58;6.63;;;1.77;;
45007;SDS011;30743;52.008;5.644;2023-04-12T08:30:23;6.03;;;2.17;;
45007;SDS011;30743;52.008;5.644;2023-04-12T08:32:51;8.23;;;2.00;;
45007;SDS011;30743;52.008;5.644;2023-04-12T08:35:17;7.53;;;2.33;;
45007;SDS011;30743;52.008;5.644;2023-04-12T08:37:43;7.15;;;2.20;;
45007;SDS011;30743;52.008;5.644;2023-04-12T08:40:09;5.97;;;2.00;;
45007;SDS011;30743;52.008;5.644;2023-04-12T08:42:35;9.48;;;2.50;;
45007;SDS011;30743;52.008;5.644;2023-04-12T08:45:05;8.60;;;2.13;;
45007;SDS011;30743;52.008;5.644;2023-04-12T08:47:33;12.05;;;2.72;;
45007;SDS011;30743;52.008;5.644;2023-04-12T08:50:00;10.60;;;2.13;;
45007;SDS011;30743;52.008;5.644;2023-04-12T08:52:27;5.70;;;1.73;;
45007;SDS011;30743;52.008;5.644;2023-04-12T08:54:57;8.93;;;1.65;;
45007;SDS011;30743;52.008;5.644;2023-04-12T08:57:25;5.35;;;2.05;;
45007;SDS011;30743;52.008;5.644;2023-04-12T08:59:51;8.10;;;2.10;;
45007;SDS011;30743;52.008;5.644;2023-04-12T09:02:18;6.65;;;2.05;;
45007;SDS011;30743;52.008;5.644;2023-04-12T09:04:47;6.72;;;1.95;;
45007;SDS011;30743;52.008;5.644;2023-04-12T09:07:14;11.10;;;2.50;;
45007;SDS011;30743;52.008;5.644;2023-04-12T09:09:41;7.57;;;2.00;;
45007;SDS011;30743;52.008;5.644;2023-04-12T09:12:11;6.47;;;2.25;;
45007;SDS011;30743;52.008;5.644;2023-04-12T09:14:38;9.55;;;2.42;;
45007;SDS011;30743;52.008;5.644;2023-04-12T09:17:05;6.43;;;2.13;;
45007;SDS011;30743;52.008;5.644;2023-04-12T09:19:46;8.93;;;2.20;;
45007;SDS011;30743;52.008;5.644;2023-04-12T09:22:11;8.88;;;1.65;;
45007;SDS011;30743;52.008;5.644;2023-04-12T09:24:46;8.25;;;2.28;;
45007;SDS011;30743;52.008;5.644;2023-04-12T09:27:14;7.10;;;2.00;;
45007;SDS011;30743;52.008;5.644;2023-04-12T09:29:40;9.13;;;1.90;;
45007;SDS011;30743;52.008;5.644;2023-04-12T09:32:06;10.10;;;2.15;;
45007;SDS011;30743;52.008;5.644;2023-04-12T09:34:33;11.25;;;3.05;;
45007;SDS011;30743;52.008;5.644;2023-04-12T09:37:15;9.70;;;2.28;;
45007;SDS011;30743;52.008;5.644;2023-04-12T09:39:41;11.65;;;3.20;;
45007;SDS011;30743;52.008;5.644;2023-04-12T09:42:10;6.97;;;1.90;;
45007;SDS011;30743;52.008;5.644;2023-04-12T09:44:38;10.35;;;2.03;;
45007;SDS011;30743;52.008;5.644;2023-04-12T09:47:04;11.18;;;2.13;;
45007;SDS011;30743;52.008;5.644;2023-04-12T09:49:36;10.45;;;2.45;;
45007;SDS011;30743;52.008;5.644;2023-04-12T09:52:04;13.20;;;2.50;;
45007;SDS011;30743;52.008;5.644;2023-04-12T09:54:31;7.55;;;2.13;;
45007;SDS011;30743;52.008;5.644;2023-04-12T09:57:06;8.88;;;1.88;;
45007;SDS011;30743;52.008;5.644;2023-04-12T09:59:34;10.50;;;2.53;;
45007;SDS011;30743;52.008;5.644;2023-04-12T10:02:14;10.80;;;2.08;;
45007;SDS011;30743;52.008;5.644;2023-04-12T10:04:42;8.15;;;2.10;;
45007;SDS011;30743;52.008;5.644;2023-04-12T10:07:08;8.27;;;2.50;;
45007;SDS011;30743;52.008;5.644;2023-04-12T10:09:36;9.55;;;2.05;;
45007;SDS011;30743;52.008;5.644;2023-04-12T10:12:04;9.68;;;1.80;;
45007;SDS011;30743;52.008;5.644;2023-04-12T10:14:30;11.90;;;3.15;;
45007;SDS011;30743;52.008;5.644;2023-04-12T10:16:57;10.32;;;2.58;;
45007;SDS011;30743;52.008;5.644;2023-04-12T10:19:25;11.63;;;2.70;;
45007;SDS011;30743;52.008;5.644;2023-04-12T10:21:53;9.35;;;2.22;;
45007;SDS011;30743;52.008;5.644;2023-04-12T10:24:22;10.88;;;2.50;;
45007;SDS011;30743;52.008;5.644;2023-04-12T10:26:49;11.48;;;2.65;;
45007;SDS011;30743;52.008;5.644;2023-04-12T10:34:54;10.30;;;2.20;;
45007;SDS011;30743;52.008;5.644;2023-04-12T10:37:21;9.15;;;2.00;;
45007;SDS011;30743;52.008;5.644;2023-04-12T10:40:07;10.13;;;2.08;;
45007;SDS011;30743;52.008;5.644;2023-04-12T10:42:41;10.50;;;2.05;;
45007;SDS011;30743;52.008;5.644;2023-04-12T10:53:36;5.47;;;1.27;;
45007;SDS011;30743;52.008;5.644;2023-04-12T10:55:40;6.32;;;1.27;;
45007;SDS011;30743;52.008;5.644;2023-04-12T10:58:09;8.68;;;2.00;;
45007;SDS011;30743;52.008;5.644;2023-04-12T11:03:21;5.38;;;1.60;;
45007;SDS011;30743;52.008;5.644;2023-04-12T11:05:55;7.05;;;1.50;;
45007;SDS011;30743;52.008;5.644;2023-04-12T11:08:25;8.20;;;1.50;;
45007;SDS011;30743;52.008;5.644;2023-04-12T11:10:58;9.52;;;2.15;;
45007;SDS011;30743;52.008;5.644;2023-04-12T11:13:28;7.93;;;1.70;;
45007;SDS011;30743;52.008;5.644;2023-04-12T11:16:00;8.73;;;3.05;;
45007;SDS011;30743;52.008;5.644;2023-04-12T11:18:29;8.05;;;1.80;;
45007;SDS011;30743;52.008;5.644;2023-04-12T11:20:57;8.35;;;2.40;;
45007;SDS011;30743;52.008;5.644;2023-04-12T11:23:22;6.63;;;1.67;;
45007;SDS011;30743;52.008;5.644;2023-04-12T11:25:49;9.75;;;1.80;;
45007;SDS011;30743;52.008;5.644;2023-04-12T11:28:17;17.33;;;3.10;;
45007;SDS011;30743;52.008;5.644;2023-04-12T11:30:50;11.27;;;2.10;;
45007;SDS011;30743;52.008;5.644;2023-04-12T11:33:33;8.80;;;2.30;;
45007;SDS011;30743;52.008;5.644;2023-04-12T11:36:10;8.38;;;1.92;;
45007;SDS011;30743;52.008;5.644;2023-04-12T11:38:37;9.05;;;2.40;;
45007;SDS011;30743;52.008;5.644;2023-04-12T11:41:03;10.30;;;1.80;;
45007;SDS011;30743;52.008;5.644;2023-04-12T11:43:32;9.98;;;2.03;;
45007;SDS011;30743;52.008;5.644;2023-04-12T11:45:59;6.53;;;1.45;;
45007;SDS011;30743;52.008;5.644;2023-04-12T11:48:26;8.00;;;1.40;;
45007;SDS011;30743;52.008;5.644;2023-04-12T11:50:52;5.65;;;2.38;;
45007;SDS011;30743;52.008;5.644;2023-04-12T11:53:18;7.55;;;1.88;;
45007;SDS011;30743;52.008;5.644;2023-04-12T11:55:49;7.15;;;1.38;;
45007;SDS011;30743;52.008;5.644;2023-04-12T11:58:16;5.95;;;1.45;;
45007;SDS011;30743;52.008;5.644;2023-04-12T12:00:42;9.82;;;1.58;;
45007;SDS011;30743;52.008;5.644;2023-04-12T12:03:09;6.55;;;1.48;;
45007;SDS011;30743;52.008;5.644;2023-04-12T12:05:36;10.50;;;1.88;;
45007;SDS011;30743;52.008;5.644;2023-04-12T12:08:02;4.43;;;1.35;;
45007;SDS011;30743;52.008;5.644;2023-04-12T12:10:31;9.47;;;1.60;;
45007;SDS011;30743;52.008;5.644;2023-04-12T12:13:01;8.93;;;1.77;;
45007;SDS011;30743;52.008;5.644;2023-04-12T12:15:30;5.75;;;1.15;;
45007;SDS011;30743;52.008;5.644;2023-04-12T12:17:56;4.53;;;1.35;;
45007;SDS011;30743;52.008;5.644;2023-04-12T12:20:22;5.82;;;1.30;;
45007;SDS011;30743;52.008;5.644;2023-04-12T12:22:48;6.10;;;1.38;;
45007;SDS011;30743;52.008;5.644;2023-04-12T12:25:16;5.80;;;1.20;;
45007;SDS011;30743;52.008;5.644;2023-04-12T12:27:42;3.72;;;0.95;;
45007;SDS011;30743;52.008;5.644;2023-04-12T12:30:12;3.15;;;1.25;;
45007;SDS011;30743;52.008;5.644;2023-04-12T12:32:41;4.38;;;1.08;;
45007;SDS011;30743;52.008;5.644;2023-04-12T12:35:07;4.50;;;0.93;;
45007;SDS011;30743;52.008;5.644;2023-04-12T12:37:34;3.92;;;1.10;;
45007;SDS011;30743;52.008;5.644;2023-04-12T12:40:01;6.18;;;1.20;;
45007;SDS011;30743;52.008;5.644;2023-04-12T12:42:32;4.97;;;1.10;;
45007;SDS011;30743;52.008;5.644;2023-04-12T12:44:58;4.95;;;1.45;;
45007;SDS011;30743;52.008;5.644;2023-04-12T12:47:24;6.45;;;1.08;;
45007;SDS011;30743;52.008;5.644;2023-04-12T12:49:50;5.90;;;0.90;;
45007;SDS011;30743;52.008;5.644;2023-04-12T12:52:15;4.03;;;1.10;;
45007;SDS011;30743;52.008;5.644;2023-04-12T12:54:41;2.75;;;1.17;;
45007;SDS011;30743;52.008;5.644;2023-04-12T12:57:06;5.65;;;1.60;;
45007;SDS011;30743;52.008;5.644;2023-04-12T12:59:32;7.35;;;1.23;;
45007;SDS011;30743;52.008;5.644;2023-04-12T13:01:57;7.95;;;1.40;;
45007;SDS011;30743;52.008;5.644;2023-04-12T13:04:23;5.53;;;1.20;;
45007;SDS011;30743;52.008;5.644;2023-04-12T13:06:49;5.22;;;1.20;;
45007;SDS011;30743;52.008;5.644;2023-04-12T13:09:15;7.35;;;1.00;;
45007;SDS011;30743;52.008;5.644;2023-04-12T13:11:41;6.35;;;1.30;;
45007;SDS011;30743;52.008;5.644;2023-04-12T13:14:06;5.75;;;0.90;;
45007;SDS011;30743;52.008;5.644;2023-04-12T13:16:32;2.83;;;1.02;;
45007;SDS011;30743;52.008;5.644;2023-04-12T13:18:57;4.43;;;1.20;;
45007;SDS011;30743;52.008;5.644;2023-04-12T13:21:23;6.18;;;1.20;;
45007;SDS011;30743;52.008;5.644;2023-04-12T13:23:48;4.65;;;1.00;;
45007;SDS011;30743;52.008;5.644;2023-04-12T13:26:14;5.93;;;1.13;;
45007;SDS011;30743;52.008;5.644;2023-04-12T13:28:40;3.60;;;1.42;;
45007;SDS011;30743;52.008;5.644;2023-04-12T13:31:05;5.15;;;1.08;;
45007;SDS011;30743;52.008;5.644;2023-04-12T13:33:31;5.22;;;1.00;;
45007;SDS011;30743;52.008;5.644;2023-04-12T13:35:56;4.90;;;0.80;;
45007;SDS011;30743;52.008;5.644;2023-04-12T13:38:22;5.00;;;0.80;;
45007;SDS011;30743;52.008;5.644;2023-04-12T13:40:47;4.15;;;0.85;;
45007;SDS011;30743;52.008;5.644;2023-04-12T13:43:13;5.43;;;0.90;;
45007;SDS011;30743;52.008;5.644;2023-04-12T13:45:39;5.80;;;0.98;;
45007;SDS011;30743;52.008;5.644;2023-04-12T13:48:04;4.50;;;0.77;;
45007;SDS011;30743;52.008;5.644;2023-04-12T13:50:30;3.05;;;0.70;;
45007;SDS011;30743;52.008;5.644;2023-04-12T13:52:55;7.05;;;0.70;;
45007;SDS011;30743;52.008;5.644;2023-04-12T13:55:21;4.22;;;1.00;;
45007;SDS011;30743;52.008;5.644;2023-04-12T13:57:46;5.15;;;1.30;;
45007;SDS011;30743;52.008;5.644;2023-04-12T14:00:12;1.92;;;0.90;;
45007;SDS011;30743;52.008;5.644;2023-04-12T14:02:39;4.90;;;0.93;;
45007;SDS011;30743;52.008;5.644;2023-04-12T14:05:05;2.08;;;0.70;;
45007;SDS011;30743;52.008;5.644;2023-04-12T14:07:30;2.28;;;0.60;;
45007;SDS011;30743;52.008;5.644;2023-04-12T14:09:57;4.25;;;0.98;;
45007;SDS011;30743;52.008;5.644;2023-04-12T14:12:22;4.97;;;0.80;;
45007;SDS011;30743;52.008;5.644;2023-04-12T14:14:48;3.60;;;0.63;;
45007;SDS011;30743;52.008;5.644;2023-04-12T14:17:13;4.18;;;0.90;;
45007;SDS011;30743;52.008;5.644;2023-04-12T14:19:39;4.75;;;1.00;;
45007;SDS011;30743;52.008;5.644;2023-04-12T14:22:04;2.28;;;0.52;;
45007;SDS011;30743;52.008;5.644;2023-04-12T14:24:30;3.38;;;0.50;;
45007;SDS011;30743;52.008;5.644;2023-04-12T14:26:55;2.47;;;0.90;;
45007;SDS011;30743;52.008;5.644;2023-04-12T14:29:21;5.63;;;0.88;;
45007;SDS011;30743;52.008;5.644;2023-04-12T14:31:46;4.45;;;0.80;;
45007;SDS011;30743;52.008;5.644;2023-04-12T14:34:12;1.65;;;0.45;;
45007;SDS011;30743;52.008;5.644;2023-04-12T14:36:38;1.38;;;0.57;;
45007;SDS011;30743;52.008;5.644;2023-04-12T14:39:03;2.15;;;0.52;;
45007;SDS011;30743;52.008;5.644;2023-04-12T14:41:29;2.70;;;0.73;;
45007;SDS011;30743;52.008;5.644;2023-04-12T14:43:55;2.60;;;0.60;;
45007;SDS011;30743;52.008;5.644;2023-04-12T14:46:22;2.50;;;1.08;;
45007;SDS011;30743;52.008;5.644;2023-04-12T14:48:49;1.90;;;0.65;;
45007;SDS011;30743;52.008;5.644;2023-04-12T14:51:14;2.72;;;0.63;;
45007;SDS011;30743;52.008;5.644;2023-04-12T14:53:40;2.22;;;0.60;;
45007;SDS011;30743;52.008;5.644;2023-04-12T14:56:19;4.30;;;0.60;;
45007;SDS011;30743;52.008;5.644;2023-04-12T14:58:45;1.67;;;0.40;;
45007;SDS011;30743;52.008;5.644;2023-04-12T15:01:11;4.75;;;0.70;;
45007;SDS011;30743;52.008;5.644;2023-04-12T15:03:37;3.22;;;0.45;;
45007;SDS011;30743;52.008;5.644;2023-04-12T15:06:07;2.25;;;0.70;;
45007;SDS011;30743;52.008;5.644;2023-04-12T15:08:33;1.58;;;0.60;;
45007;SDS011;30743;52.008;5.644;2023-04-12T15:11:05;1.88;;;0.40;;
45007;SDS011;30743;52.008;5.644;2023-04-12T15:13:37;2.08;;;0.65;;